Time;durP1;ratioP1;P1;durP2;ratioP2;P2;SDS_P1;SDS_P2;PMS_P1;PMS_P2;Temp;Humidity;BMP_temperature;BMP_pressure;BME280_temperature;BME280_humidity;BME280_pressure;Samples;Min_cycle;Max_cycle;Signal;HPM_P1;HPM_P2
2021/09/23 00:01:18;;;;;;;19.77;9.13;;;11.80;99.90;;;;;;5016754;28;20124;-74
2021/09/23 00:03:56;;;;;;;22.85;9.40;;;11.70;99.90;;;;;;5016170;28;20414;-76
2021/09/23 00:06:22;;;;;;;18.77;8.63;;;11.80;99.90;;;;;;5016258;28;20049;-75
2021/09/23 00:08:51;;;;;;;20.95;8.60;;;11.70;99.90;;;;;;5016139;28;20026;-75
2021/09/23 00:11:17;;;;;;;23.27;8.43;;;11.70;99.90;;;;;;5014735;28;20049;-75
2021/09/23 00:13:42;;;;;;;24.08;9.10;;;11.70;99.90;;;;;;5014736;28;20485;-73
2021/09/23 00:16:08;;;;;;;23.42;8.32;;;11.80;99.90;;;;;;5015948;28;20078;-75
2021/09/23 00:18:34;;;;;;;21.90;8.13;;;11.80;99.90;;;;;;5016564;28;20084;-73
2021/09/23 00:21:02;;;;;;;20.83;7.88;;;11.70;99.90;;;;;;5014027;28;20498;-77
2021/09/23 00:23:28;;;;;;;18.42;8.27;;;11.70;99.90;;;;;;5016005;28;20490;-73
2021/09/23 00:25:54;;;;;;;22.55;8.68;;;11.70;99.90;;;;;;5014479;28;20025;-73
2021/09/23 00:28:19;;;;;;;21.75;7.88;;;11.70;99.90;;;;;;5016264;28;20475;-73
2021/09/23 00:30:45;;;;;;;19.95;8.40;;;11.70;99.90;;;;;;5015582;28;20026;-73
2021/09/23 00:33:11;;;;;;;16.75;7.30;;;11.60;99.90;;;;;;5014234;28;20022;-74
2021/09/23 00:35:37;;;;;;;21.17;8.35;;;11.60;99.90;;;;;;5015603;28;20018;-73
2021/09/23 00:38:02;;;;;;;20.73;7.78;;;11.60;99.90;;;;;;5015401;28;20030;-73
2021/09/23 00:40:28;;;;;;;17.02;7.68;;;11.50;99.90;;;;;;5014242;28;20026;-73
2021/09/23 00:42:54;;;;;;;23.10;8.85;;;11.60;99.90;;;;;;5015931;28;20025;-73
2021/09/23 00:45:21;;;;;;;19.27;8.88;;;11.60;99.90;;;;;;5014119;28;20068;-74
2021/09/23 00:47:47;;;;;;;19.85;7.95;;;11.60;99.90;;;;;;5015704;28;20430;-73
2021/09/23 00:50:13;;;;;;;21.40;7.70;;;11.60;99.90;;;;;;5015225;28;20079;-73
2021/09/23 00:52:40;;;;;;;17.35;7.93;;;11.60;99.90;;;;;;5015177;28;20436;-72
2021/09/23 00:55:08;;;;;;;22.15;8.38;;;11.60;99.90;;;;;;5015198;28;20026;-73
2021/09/23 00:57:34;;;;;;;19.30;7.50;;;11.60;99.90;;;;;;5015803;28;20025;-73
2021/09/23 01:00:06;;;;;;;20.33;8.25;;;11.60;99.90;;;;;;5018751;28;20026;-73
2021/09/23 01:02:33;;;;;;;20.02;8.45;;;11.60;99.90;;;;;;5018637;28;20084;-76
2021/09/23 01:04:59;;;;;;;19.65;8.57;;;11.60;99.90;;;;;;5018685;28;20438;-76
2021/09/23 01:07:25;;;;;;;20.67;8.63;;;11.60;99.90;;;;;;5020245;28;20480;-74
2021/09/23 01:09:52;;;;;;;20.77;7.70;;;11.70;99.90;;;;;;5018161;28;20048;-75
2021/09/23 01:12:19;;;;;;;23.35;7.97;;;11.80;99.90;;;;;;5015950;28;20087;-76
2021/09/23 01:14:45;;;;;;;20.52;8.50;;;12.00;99.90;;;;;;5014602;28;20097;-76
2021/09/23 01:17:11;;;;;;;19.77;8.45;;;12.00;99.90;;;;;;5014828;28;20052;-76
2021/09/23 01:19:42;;;;;;;17.67;7.20;;;12.00;99.90;;;;;;5014751;28;20475;-77
2021/09/23 01:22:08;;;;;;;18.25;7.07;;;12.10;99.90;;;;;;5014626;28;20467;-73
2021/09/23 01:24:37;;;;;;;19.73;8.07;;;12.20;99.90;;;;;;5013385;28;20025;-73
2021/09/23 01:27:03;;;;;;;23.70;8.45;;;12.20;99.90;;;;;;5015070;28;20105;-73
2021/09/23 01:29:29;;;;;;;19.17;7.05;;;12.40;99.90;;;;;;5013919;28;20495;-74
2021/09/23 01:31:55;;;;;;;20.83;7.38;;;12.50;99.90;;;;;;5013898;28;20104;-75
2021/09/23 01:34:21;;;;;;;17.83;8.20;;;12.60;99.90;;;;;;5014465;28;20117;-75
2021/09/23 01:36:46;;;;;;;19.20;7.65;;;12.70;99.90;;;;;;5014597;28;20022;-75
2021/09/23 01:39:20;;;;;;;20.15;8.70;;;12.90;99.90;;;;;;5015026;28;20427;-75
2021/09/23 01:41:48;;;;;;;18.45;7.50;;;12.90;99.90;;;;;;5014375;28;20049;-74
2021/09/23 01:44:13;;;;;;;19.40;8.00;;;13.00;99.90;;;;;;5014351;28;20033;-76
2021/09/23 01:46:39;;;;;;;19.13;7.97;;;13.00;99.90;;;;;;5014390;28;20025;-76
2021/09/23 01:49:05;;;;;;;18.80;7.88;;;13.00;99.90;;;;;;5014371;28;20080;-76
2021/09/23 01:51:30;;;;;;;18.45;7.80;;;13.00;99.90;;;;;;5014042;28;20088;-75
2021/09/23 01:53:56;;;;;;;16.90;7.35;;;12.90;99.90;;;;;;5012604;28;20391;-76
2021/09/23 01:56:21;;;;;;;17.95;8.40;;;12.90;99.90;;;;;;5013592;28;20037;-76
2021/09/23 01:58:47;;;;;;;17.13;7.47;;;12.90;99.90;;;;;;5012595;28;20029;-76
2021/09/23 02:01:13;;;;;;;24.42;7.95;;;12.90;99.90;;;;;;5014249;28;20450;-73
2021/09/23 02:03:39;;;;;;;21.92;8.80;;;13.40;99.90;;;;;;5013848;28;20104;-73
2021/09/23 02:06:04;;;;;;;18.30;7.95;;;12.90;99.90;;;;;;5014545;28;20018;-73
2021/09/23 02:08:30;;;;;;;18.98;8.85;;;13.00;99.90;;;;;;5013951;28;20076;-73
2021/09/23 02:10:55;;;;;;;19.45;8.52;;;13.00;99.90;;;;;;5012665;28;20385;-73
2021/09/23 02:13:21;;;;;;;16.35;7.82;;;13.00;99.90;;;;;;5013751;28;20030;-73
2021/09/23 02:15:46;;;;;;;22.48;9.40;;;13.00;99.90;;;;;;5013888;28;20165;-76
2021/09/23 02:18:12;;;;;;;26.65;9.98;;;13.00;99.90;;;;;;5012161;28;20062;-76
2021/09/23 02:20:38;;;;;;;23.60;9.70;;;13.00;99.90;;;;;;5014023;28;20101;-76
2021/09/23 02:23:03;;;;;;;25.83;9.43;;;13.00;99.90;;;;;;5013561;28;20525;-75
2021/09/23 02:25:29;;;;;;;17.20;7.93;;;13.00;99.90;;;;;;5013809;28;20388;-75
2021/09/23 02:27:54;;;;;;;23.80;10.00;;;13.00;99.90;;;;;;5013953;28;20026;-72
2021/09/23 02:30:20;;;;;;;19.27;8.48;;;13.00;99.90;;;;;;5013869;28;20096;-72
2021/09/23 02:32:45;;;;;;;22.38;9.80;;;13.00;99.90;;;;;;5013640;28;20040;-73
2021/09/23 02:35:11;;;;;;;23.52;10.23;;;13.10;99.90;;;;;;5012320;28;20026;-73
2021/09/23 02:37:37;;;;;;;23.33;10.45;;;13.20;99.90;;;;;;5013648;28;20053;-75
2021/09/23 02:40:04;;;;;;;26.85;11.43;;;13.20;99.90;;;;;;5013587;28;20045;-72
2021/09/23 02:42:30;;;;;;;26.23;9.85;;;13.20;99.90;;;;;;5012260;28;20037;-72
2021/09/23 02:44:56;;;;;;;22.10;9.55;;;13.20;99.90;;;;;;5013414;28;20026;-75
2021/09/23 02:47:23;;;;;;;22.48;10.00;;;13.20;99.90;;;;;;5012314;28;20479;-76
2021/09/23 02:49:50;;;;;;;22.30;9.77;;;13.20;99.90;;;;;;5013519;28;20113;-74
2021/09/23 02:52:17;;;;;;;20.02;8.60;;;13.10;99.90;;;;;;5011948;28;20030;-73
2021/09/23 02:54:43;;;;;;;21.92;10.02;;;13.00;99.90;;;;;;5013432;28;20057;-73
2021/09/23 02:57:09;;;;;;;25.02;9.73;;;13.00;99.90;;;;;;5012141;28;20108;-76
2021/09/23 02:59:34;;;;;;;24.67;10.38;;;13.00;99.90;;;;;;5012101;28;20026;-73
2021/09/23 03:02:00;;;;;;;23.15;9.57;;;13.00;99.90;;;;;;5012013;28;20030;-73
2021/09/23 03:04:26;;;;;;;27.73;10.48;;;13.00;99.90;;;;;;5013040;28;20205;-74
2021/09/23 03:06:51;;;;;;;20.90;9.45;;;13.00;99.90;;;;;;5011024;28;20112;-74
2021/09/23 03:09:17;;;;;;;19.60;8.90;;;13.00;99.90;;;;;;5014197;28;20194;-74
2021/09/23 03:11:44;;;;;;;21.08;9.50;;;13.00;99.90;;;;;;5013087;28;20041;-74
2021/09/23 03:14:10;;;;;;;23.90;9.77;;;12.90;99.90;;;;;;5013218;28;20164;-75
2021/09/23 03:16:35;;;;;;;23.45;10.35;;;12.90;99.90;;;;;;5011785;28;20064;-75
2021/09/23 03:19:01;;;;;;;23.27;10.93;;;12.80;99.90;;;;;;5011912;28;20051;-75
2021/09/23 03:21:26;;;;;;;24.10;10.07;;;14.50;99.90;;;;;;5013166;28;20383;-77
2021/09/23 03:23:52;;;;;;;18.65;9.25;;;12.80;99.90;;;;;;5013185;28;20535;-77
2021/09/23 03:26:18;;;;;;;20.85;9.32;;;12.80;99.90;;;;;;5012921;28;20050;-77
2021/09/23 03:28:43;;;;;;;22.88;11.00;;;12.80;99.90;;;;;;5013096;28;20021;-77
2021/09/23 03:31:09;;;;;;;27.58;11.00;;;12.80;99.90;;;;;;5011913;28;20026;-77
2021/09/23 03:33:34;;;;;;;19.63;9.68;;;12.90;99.90;;;;;;5012877;28;20038;-75
2021/09/23 03:36:00;;;;;;;24.63;9.88;;;12.90;99.90;;;;;;5013366;28;20037;-73
2021/09/23 03:38:26;;;;;;;26.17;10.75;;;12.90;99.90;;;;;;5013072;28;20021;-73
2021/09/23 03:40:51;;;;;;;29.48;11.15;;;12.90;99.90;;;;;;5011796;28;20021;-73
2021/09/23 03:43:19;;;;;;;21.90;11.40;;;12.90;99.90;;;;;;5012760;28;20565;-73
2021/09/23 03:45:47;;;;;;;24.85;10.95;;;12.90;99.90;;;;;;5011671;28;20025;-73
2021/09/23 03:48:13;;;;;;;25.27;11.37;;;12.90;99.90;;;;;;5012826;28;20028;-73
2021/09/23 03:50:38;;;;;;;21.58;10.27;;;12.90;99.90;;;;;;5012929;28;20483;-75
2021/09/23 03:53:04;;;;;;;23.70;10.75;;;12.80;99.90;;;;;;5011553;28;20026;-72
2021/09/23 03:55:30;;;;;;;22.65;10.57;;;12.90;99.90;;;;;;5013860;28;20049;-74
2021/09/23 03:57:56;;;;;;;27.65;11.63;;;12.90;99.90;;;;;;5016962;28;20076;-74
2021/09/23 04:00:23;;;;;;;28.90;12.90;;;12.90;99.90;;;;;;5016307;28;20526;-74
2021/09/23 04:02:49;;;;;;;29.50;13.05;;;12.90;99.90;;;;;;5014882;28;20057;-73
2021/09/23 04:05:15;;;;;;;30.00;13.40;;;12.90;99.90;;;;;;5016479;28;20503;-73
2021/09/23 04:07:41;;;;;;;30.90;13.32;;;12.90;99.90;;;;;;5016138;28;20054;-73
2021/09/23 04:10:08;;;;;;;33.60;13.75;;;12.90;99.90;;;;;;5016193;28;20068;-73
2021/09/23 04:12:35;;;;;;;29.15;12.80;;;12.90;99.90;;;;;;5014663;28;20395;-74
2021/09/23 04:15:01;;;;;;;29.40;13.10;;;12.90;99.90;;;;;;5015994;28;20049;-74
2021/09/23 04:17:27;;;;;;;29.10;12.40;;;12.90;99.90;;;;;;5015875;28;20040;-72
2021/09/23 04:19:52;;;;;;;29.90;15.05;;;12.90;99.90;;;;;;5014749;28;20018;-75
2021/09/23 04:22:18;;;;;;;30.33;13.18;;;13.00;99.90;;;;;;5016116;28;20021;-75
2021/09/23 04:24:44;;;;;;;37.10;15.02;;;13.00;99.90;;;;;;5016167;28;20026;-76
2021/09/23 04:27:10;;;;;;;36.05;15.45;;;13.00;99.90;;;;;;5015841;28;20025;-72
2021/09/23 04:29:36;;;;;;;35.58;15.52;;;13.00;99.90;;;;;;5014554;28;20034;-77
2021/09/23 04:32:06;;;;;;;32.83;15.20;;;13.00;99.90;;;;;;5015955;28;20491;-74
2021/09/23 04:34:35;;;;;;;34.00;16.45;;;13.10;99.90;;;;;;5015276;28;20022;-75
2021/09/23 04:37:01;;;;;;;39.53;15.48;;;13.10;99.90;;;;;;5015737;28;20037;-75
2021/09/23 04:39:26;;;;;;;35.75;15.73;;;13.10;99.90;;;;;;5015827;28;20029;-74
2021/09/23 04:41:52;;;;;;;36.00;16.40;;;13.10;99.90;;;;;;5015582;28;20034;-77
2021/09/23 04:44:18;;;;;;;42.25;16.45;;;13.10;99.90;;;;;;5014192;28;20036;-73
2021/09/23 04:46:43;;;;;;;41.85;17.80;;;13.10;99.90;;;;;;5014197;28;20397;-76
2021/09/23 04:49:09;;;;;;;39.28;16.55;;;13.10;99.90;;;;;;5015466;28;20460;-72
2021/09/23 04:51:36;;;;;;;39.10;18.38;;;13.00;99.90;;;;;;5014743;28;20116;-75
2021/09/23 04:54:03;;;;;;;42.85;18.23;;;13.00;99.90;;;;;;5014152;28;20026;-78
2021/09/23 04:56:29;;;;;;;49.88;20.23;;;13.00;99.90;;;;;;5014029;28;20112;-74
2021/09/23 04:58:55;;;;;;;41.95;18.67;;;13.00;99.90;;;;;;5015309;28;20037;-74
2021/09/23 05:01:21;;;;;;;53.08;19.70;;;13.00;99.90;;;;;;5015067;28;20030;-76
2021/09/23 05:03:47;;;;;;;42.53;20.23;;;13.00;99.90;;;;;;5015415;28;20096;-74
2021/09/23 05:06:12;;;;;;;42.92;18.27;;;13.00;99.90;;;;;;5013720;28;20026;-74
2021/09/23 05:08:38;;;;;;;44.35;18.55;;;13.00;99.90;;;;;;5015195;28;20527;-76
2021/09/23 05:11:05;;;;;;;41.67;17.98;;;13.00;99.90;;;;;;5014235;28;20057;-75
2021/09/23 05:13:31;;;;;;;42.95;18.33;;;12.90;99.90;;;;;;5014875;28;20446;-74
2021/09/23 05:15:57;;;;;;;40.08;19.00;;;12.90;99.90;;;;;;5014864;28;20129;-75
2021/09/23 05:18:22;;;;;;;45.15;20.83;;;12.90;99.90;;;;;;5013534;28;20498;-74
2021/09/23 05:20:48;;;;;;;42.50;20.02;;;12.90;99.90;;;;;;5014730;28;20092;-74
2021/09/23 05:23:13;;;;;;;43.47;18.58;;;12.90;99.90;;;;;;5014582;28;20026;-73
2021/09/23 05:25:39;;;;;;;45.55;19.50;;;12.90;99.90;;;;;;5014948;28;20022;-74
2021/09/23 05:28:05;;;;;;;47.90;19.60;;;12.90;99.90;;;;;;5014884;28;20080;-74
2021/09/23 05:30:31;;;;;;;41.42;17.45;;;12.90;99.90;;;;;;5014637;28;20376;-74
2021/09/23 05:32:57;;;;;;;46.05;19.83;;;12.90;99.90;;;;;;5014416;28;20109;-73
2021/09/23 05:35:22;;;;;;;45.78;20.30;;;13.00;99.90;;;;;;5013275;28;20053;-73
2021/09/23 05:37:48;;;;;;;40.70;19.10;;;13.00;99.90;;;;;;5014471;28;20117;-74
2021/09/23 05:40:14;;;;;;;41.83;18.58;;;13.00;99.90;;;;;;5014478;28;20028;-74
2021/09/23 05:42:41;;;;;;;44.90;19.85;;;13.00;99.90;;;;;;5014315;28;20088;-75
2021/09/23 05:45:09;;;;;;;47.85;19.73;;;14.80;99.90;;;;;;5014318;28;20048;-75
2021/09/23 05:47:35;;;;;;;40.95;18.48;;;13.10;99.90;;;;;;5012853;28;20479;-74
2021/09/23 05:50:01;;;;;;;53.28;21.35;;;13.10;99.90;;;;;;5014460;28;20072;-74
2021/09/23 05:52:27;;;;;;;49.90;20.58;;;13.10;99.90;;;;;;5016073;28;20030;-74
2021/09/23 05:54:54;;;;;;;50.20;20.88;;;13.20;99.90;;;;;;5014570;28;20033;-75
2021/09/23 05:57:23;;;;;;;45.88;19.92;;;13.20;99.90;;;;;;5017858;28;20153;-75
2021/09/23 05:59:49;;;;;;;50.80;19.05;;;13.30;99.90;;;;;;5017618;28;20120;-77
2021/09/23 06:02:15;;;;;;;52.72;20.83;;;13.30;99.90;;;;;;5019398;28;20100;-78
2021/09/23 06:04:41;;;;;;;43.97;18.05;;;13.40;99.90;;;;;;5017368;28;20022;-78
2021/09/23 06:07:07;;;;;;;49.35;20.33;;;13.40;99.90;;;;;;5016368;28;20030;-78
2021/09/23 06:09:32;;;;;;;51.08;20.95;;;13.40;99.90;;;;;;5014170;28;20038;-78
2021/09/23 06:11:58;;;;;;;47.15;20.45;;;13.40;99.90;;;;;;5014511;28;20083;-78
2021/09/23 06:14:24;;;;;;;48.15;20.75;;;13.50;99.90;;;;;;5013773;28;20089;-78
2021/09/23 06:16:50;;;;;;;46.75;19.25;;;13.60;99.90;;;;;;5014741;28;20026;-78
2021/09/23 06:19:16;;;;;;;43.05;18.95;;;13.60;99.90;;;;;;5012200;28;20018;-78
2021/09/23 06:21:41;;;;;;;45.60;19.63;;;13.70;99.90;;;;;;5014629;28;20025;-78
2021/09/23 06:24:07;;;;;;;45.65;19.92;;;13.80;99.90;;;;;;5013198;28;20026;-77
2021/09/23 06:26:33;;;;;;;44.33;18.95;;;13.90;99.90;;;;;;5014082;28;20105;-76
2021/09/23 06:28:59;;;;;;;43.95;18.58;;;13.90;99.90;;;;;;5013927;28;20029;-76
2021/09/23 06:31:24;;;;;;;46.72;19.13;;;14.00;99.90;;;;;;5013703;28;20088;-77
2021/09/23 06:33:50;;;;;;;48.25;18.80;;;14.10;99.90;;;;;;5012465;28;20022;-78
2021/09/23 06:36:16;;;;;;;43.95;18.70;;;14.20;99.90;;;;;;5012764;28;20018;-78
2021/09/23 06:38:42;;;;;;;45.33;18.38;;;14.20;99.90;;;;;;5015629;28;20029;-78
2021/09/23 06:41:11;;;;;;;46.03;19.92;;;14.30;99.90;;;;;;5013295;28;20022;-78
2021/09/23 06:43:37;;;;;;;;;;;14.30;99.90;;;;;;5013752;28;20026;-77
2021/09/23 06:46:02;;;;;;;42.72;18.25;;;14.30;99.90;;;;;;5013821;28;19905;-79
2021/09/23 06:48:28;;;;;;;50.63;19.90;;;14.30;99.90;;;;;;5014990;28;20025;-79
2021/09/23 06:50:53;;;;;;;42.75;17.73;;;14.40;99.90;;;;;;5013073;28;20034;-77
2021/09/23 06:53:19;;;;;;;40.15;18.67;;;14.40;99.90;;;;;;5014566;28;20018;-78
2021/09/23 06:55:45;;;;;;;42.05;17.65;;;14.50;99.90;;;;;;5013199;28;20018;-78
2021/09/23 06:58:11;;;;;;;44.78;18.45;;;14.50;99.90;;;;;;5014409;28;20022;-78
2021/09/23 07:00:36;;;;;;;42.58;18.10;;;14.50;99.90;;;;;;5012838;28;20068;-78
2021/09/23 07:03:02;;;;;;;37.88;16.08;;;14.60;99.90;;;;;;5013422;28;20080;-78
2021/09/23 07:05:28;;;;;;;38.33;16.52;;;14.70;99.90;;;;;;5013320;28;20040;-77
2021/09/23 07:07:54;;;;;;;44.17;17.40;;;14.80;99.90;;;;;;5012135;28;20029;-77
2021/09/23 07:10:20;;;;;;;47.80;16.70;;;14.90;99.90;;;;;;5013256;28;20034;-77
2021/09/23 07:12:46;;;;;;;37.22;17.10;;;15.00;99.90;;;;;;5012228;28;20498;-78
2021/09/23 07:15:12;;;;;;;39.67;16.55;;;15.10;99.90;;;;;;5011888;28;20049;-78
2021/09/23 07:17:37;;;;;;;37.67;16.52;;;15.10;99.90;;;;;;5014573;28;20037;-79
2021/09/23 07:20:04;;;;;;;41.28;18.33;;;15.30;99.90;;;;;;5016148;28;20068;-79
2021/09/23 07:22:30;;;;;;;37.47;16.90;;;15.40;99.90;;;;;;5013322;28;20089;-78
2021/09/23 07:24:56;;;;;;;38.95;17.88;;;15.30;99.90;;;;;;5014611;28;20026;-79
2021/09/23 07:27:22;;;;;;;36.60;16.77;;;15.30;99.90;;;;;;5014154;28;20124;-78
2021/09/23 07:29:48;;;;;;;46.85;16.77;;;15.40;99.90;;;;;;5013227;28;20497;-79
2021/09/23 07:32:15;;;;;;;39.40;16.35;;;15.40;99.90;;;;;;5018722;28;20109;-79
2021/09/23 07:34:41;;;;;;;37.00;17.00;;;15.50;99.90;;;;;;5016722;28;20022;-78
2021/09/23 07:37:08;;;;;;;34.53;15.18;;;15.60;99.90;;;;;;5017222;28;20454;-77
2021/09/23 07:39:34;;;;;;;35.03;15.38;;;15.70;99.90;;;;;;5015674;28;20022;-77
2021/09/23 07:42:01;;;;;;;38.20;16.90;;;15.80;99.90;;;;;;5015479;28;20080;-77
2021/09/23 07:44:27;;;;;;;35.88;16.65;;;15.80;99.90;;;;;;5016849;28;20026;-77
2021/09/23 07:46:55;;;;;;;38.42;17.20;;;15.90;99.90;;;;;;5015762;28;20455;-77
2021/09/23 07:49:22;;;;;;;38.80;15.45;;;16.00;99.90;;;;;;5017827;28;20029;-75
2021/09/23 07:51:48;;;;;;;36.30;16.38;;;15.90;99.90;;;;;;5015396;28;20117;-75
2021/09/23 07:54:14;;;;;;;34.97;16.50;;;16.00;99.90;;;;;;5016464;28;20121;-74
2021/09/23 07:56:40;;;;;;;36.78;14.95;;;16.00;99.90;;;;;;5015150;28;20064;-74
2021/09/23 07:59:05;;;;;;;35.20;16.23;;;16.00;99.90;;;;;;5015123;28;20022;-74
2021/09/23 08:01:32;;;;;;;33.28;16.52;;;16.10;99.90;;;;;;5016400;28;20026;-75
2021/09/23 08:03:58;;;;;;;44.70;17.25;;;16.10;99.90;;;;;;5016179;28;20018;-75
2021/09/23 08:06:23;;;;;;;34.70;15.38;;;16.10;99.90;;;;;;5014967;28;20033;-74
2021/09/23 08:08:50;;;;;;;32.25;15.27;;;16.20;99.90;;;;;;5016201;28;20025;-74
2021/09/23 08:11:15;;;;;;;32.72;14.20;;;16.30;99.90;;;;;;5014904;28;20029;-76
2021/09/23 08:13:41;;;;;;;34.13;14.90;;;16.30;99.90;;;;;;5016069;28;20479;-73
2021/09/23 08:16:07;;;;;;;33.17;14.25;;;16.50;99.90;;;;;;5016191;28;20026;-73
2021/09/23 08:18:33;;;;;;;32.00;13.63;;;16.70;99.90;;;;;;5015020;28;20033;-73
2021/09/23 08:20:58;;;;;;;34.20;14.45;;;16.90;99.90;;;;;;5016101;28;20032;-74
2021/09/23 08:23:24;;;;;;;26.02;12.02;;;17.00;99.90;;;;;;5015972;28;20369;-74
2021/09/23 08:25:52;;;;;;;29.63;12.02;;;17.10;99.90;;;;;;5015565;28;20468;-76
2021/09/23 08:28:18;;;;;;;26.65;13.00;;;17.10;99.90;;;;;;5015886;28;20433;-75
2021/09/23 08:30:46;;;;;;;27.42;11.88;;;16.90;99.90;;;;;;5016135;28;20518;-74
2021/09/23 08:33:12;;;;;;;25.58;11.60;;;16.90;99.90;;;;;;5014183;28;20571;-73
2021/09/23 08:35:37;;;;;;;25.15;11.75;;;16.80;99.90;;;;;;5016025;28;20108;-73
2021/09/23 08:38:03;;;;;;;29.33;10.45;;;16.70;99.90;;;;;;5016283;28;20064;-75
2021/09/23 08:40:28;;;;;;;22.45;10.93;;;16.60;99.90;;;;;;5015552;28;20052;-75
2021/09/23 08:42:54;;;;;;;26.00;11.45;;;16.60;99.90;;;;;;5013833;28;20037;-75
2021/09/23 08:45:21;;;;;;;24.27;10.25;;;16.50;99.90;;;;;;5014442;28;20518;-75
2021/09/23 08:47:48;;;;;;;23.48;11.10;;;16.50;99.90;;;;;;5014194;28;20025;-75
2021/09/23 08:50:16;;;;;;;24.80;10.70;;;16.50;99.90;;;;;;5015651;28;20110;-75
2021/09/23 08:52:43;;;;;;;20.30;10.45;;;16.60;99.90;;;;;;5016046;28;20068;-75
2021/09/23 08:55:25;;;;;;;26.98;10.07;;;16.70;99.90;;;;;;5014034;28;20475;-74
2021/09/23 08:57:51;;;;;;;22.38;8.90;;;16.70;99.90;;;;;;5014017;28;20068;-73
2021/09/23 09:00:17;;;;;;;20.48;9.63;;;16.80;99.90;;;;;;5013978;28;20038;-73
2021/09/23 09:02:42;;;;;;;24.90;9.60;;;16.90;99.90;;;;;;5015310;28;20427;-74
2021/09/23 09:05:18;;;;;;;22.83;9.60;;;17.10;99.90;;;;;;5015092;28;20026;-74
2021/09/23 09:07:43;;;;;;;23.35;8.75;;;17.20;99.90;;;;;;5013982;28;20021;-74
2021/09/23 09:10:11;;;;;;;21.60;8.68;;;17.50;99.90;;;;;;5015221;28;20026;-74
2021/09/23 09:12:39;;;;;;;22.33;8.55;;;17.70;99.90;;;;;;5014916;28;20463;-74
2021/09/23 09:15:05;;;;;;;16.35;7.50;;;17.80;99.90;;;;;;5015237;28;20418;-74
2021/09/23 09:17:36;;;;;;;13.52;5.75;;;17.90;99.90;;;;;;5013720;28;20033;-75
2021/09/23 09:20:07;;;;;;;7.57;2.40;;;18.10;99.90;;;;;;5013598;28;20068;-75
2021/09/23 09:22:34;;;;;;;4.63;1.90;;;18.20;99.90;;;;;;5013952;28;20490;-74
2021/09/23 09:25:04;;;;;;;4.38;0.98;;;18.40;99.90;;;;;;5015250;28;20152;-75
2021/09/23 09:27:42;;;;;;;4.47;0.70;;;18.50;99.90;;;;;;5015349;28;20030;-75
2021/09/23 09:30:17;;;;;;;5.72;0.60;;;18.60;99.90;;;;;;5013684;28;20026;-75
2021/09/23 09:32:48;;;;;;;3.75;0.80;;;18.80;99.90;;;;;;5014645;28;20033;-75
2021/09/23 09:35:17;;;;;;;2.38;0.20;;;18.90;99.90;;;;;;5013198;28;20026;-76
2021/09/23 09:37:49;;;;;;;2.58;0.52;;;18.90;99.90;;;;;;5013400;28;20018;-75
2021/09/23 09:40:20;;;;;;;2.38;0.47;;;18.90;99.90;;;;;;5013314;28;20022;-74
2021/09/23 09:42:48;;;;;;;2.72;0.38;;;18.90;99.90;;;;;;5013313;28;20025;-74
2021/09/23 09:45:17;;;;;;;1.85;0.13;;;18.60;99.90;;;;;;5014412;28;20022;-75
2021/09/23 09:47:43;;;;;;;;;;;18.60;99.90;;;;;;5014903;28;20022;-75
2021/09/23 09:50:14;;;;;;;4.22;0.17;;;18.70;99.90;;;;;;5014817;28;19959;-75
2021/09/23 09:52:46;;;;;;;4.07;0.22;;;18.70;99.90;;;;;;5012493;28;20025;-75
2021/09/23 09:55:12;;;;;;;1.65;0.15;;;18.60;99.90;;;;;;5013991;28;20076;-75
2021/09/23 09:57:49;;;;;;;1.58;0.73;;;18.70;99.90;;;;;;5012986;28;20030;-75
2021/09/23 10:00:16;;;;;;;2.40;0.10;;;18.80;99.90;;;;;;5014406;28;20490;-74
2021/09/23 10:02:46;;;;;;;3.13;0.25;;;18.60;99.90;;;;;;5012921;28;20022;-74
2021/09/23 10:05:14;;;;;;;5.60;0.28;;;18.60;99.90;;;;;;5014014;28;20030;-75
2021/09/23 10:07:44;;;;;;;2.50;0.10;;;18.70;99.90;;;;;;5014681;28;20050;-75
2021/09/23 10:10:11;;;;;;;2.50;0.00;;;18.80;99.90;;;;;;5014628;28;20033;-75
2021/09/23 10:12:40;;;;;;;6.47;0.47;;;18.80;99.90;;;;;;5014031;28;20026;-74
2021/09/23 10:15:14;;;;;;;1.70;0.20;;;18.80;99.90;;;;;;5013934;28;20365;-75
2021/09/23 10:17:42;;;;;;;3.47;0.10;;;18.90;99.90;;;;;;5014567;28;20101;-74
2021/09/23 10:20:08;;;;;;;5.93;0.52;;;19.00;99.90;;;;;;5013944;28;20033;-74
2021/09/23 10:22:37;;;;;;;2.50;0.03;;;18.80;99.90;;;;;;5013767;28;20022;-74
2021/09/23 10:25:07;;;;;;;0.55;0.30;;;18.80;99.90;;;;;;5013825;28;20483;-74
2021/09/23 10:30:19;;;;;;;4.70;0.98;;;18.60;99.90;;;;;;5014066;28;20045;-73
2021/09/23 10:32:46;;;;;;;0.98;0.13;;;18.60;99.90;;;;;;5013481;28;20030;-74
2021/09/23 10:35:15;;;;;;;2.70;0.20;;;18.60;99.90;;;;;;5013628;28;20018;-74
2021/09/23 10:37:42;;;;;;;1.30;0.52;;;18.50;99.90;;;;;;5012360;28;20025;-74
2021/09/23 10:40:12;;;;;;;3.83;0.40;;;18.30;99.90;;;;;;5013639;28;20026;-75
2021/09/23 10:42:43;;;;;;;2.80;0.10;;;18.30;99.90;;;;;;5012500;28;20052;-74
2021/09/23 10:45:09;;;;;;;4.85;0.55;;;18.40;99.90;;;;;;5013485;28;20026;-74
2021/09/23 10:47:36;;;;;;;2.10;0.10;;;18.40;99.90;;;;;;5013560;28;20032;-74
2021/09/23 10:50:05;;;;;;;1.45;0.20;;;18.30;99.90;;;;;;5013660;28;20026;-74
2021/09/23 10:52:34;;;;;;;2.60;0.30;;;18.30;99.90;;;;;;5012212;28;20030;-75
2021/09/23 10:55:01;;;;;;;3.28;0.30;;;18.50;99.90;;;;;;5013378;28;20025;-75
2021/09/23 10:57:28;;;;;;;2.03;0.10;;;18.80;99.90;;;;;;5013728;28;20480;-76
2021/09/23 10:59:55;;;;;;;4.63;0.65;;;19.00;99.90;;;;;;5012313;28;20076;-75
2021/09/23 11:02:23;;;;;;;4.97;0.50;;;19.30;99.90;;;;;;5013808;28;20076;-75
2021/09/23 11:04:56;;;;;;;4.03;0.13;;;19.50;99.90;;;;;;5015379;28;20037;-75
2021/09/23 11:07:29;;;;;;;2.90;0.20;;;19.60;99.90;;;;;;5016040;28;20018;-75
2021/09/23 11:10:12;;;;;;;2.30;0.15;;;19.70;99.90;;;;;;5016048;28;20037;-75
2021/09/23 11:12:40;;;;;;;4.38;0.30;;;19.90;99.90;;;;;;5017433;28;20190;-75
2021/09/23 11:15:08;;;;;;;3.40;0.20;;;20.20;99.90;;;;;;5015917;28;20076;-75
2021/09/23 11:17:35;;;;;;;1.48;0.20;;;20.50;99.90;;;;;;5015872;28;20818;-75
2021/09/23 11:20:06;;;;;;;1.70;0.22;;;20.80;99.90;;;;;;5017558;28;20025;-75
2021/09/23 11:22:37;;;;;;;5.32;0.35;;;20.90;99.90;;;;;;5017643;28;20029;-75
2021/09/23 11:25:13;;;;;;;1.17;0.10;;;20.90;99.90;;;;;;5016927;28;20033;-75
2021/09/23 11:27:40;;;;;;;0.73;0.00;;;20.90;99.90;;;;;;5017310;28;20562;-75
2021/09/23 11:30:09;;;;;;;7.75;0.47;;;20.80;99.90;;;;;;5017635;28;20530;-75
2021/09/23 11:32:52;;;;;;;1.95;0.35;;;20.70;99.90;;;;;;5047586;22;20067;-75
2021/09/23 11:35:22;;;;;;;2.85;0.30;;;20.40;99.90;;;;;;5035946;28;20360;-73
2021/09/23 11:37:49;;;;;;;2.67;0.00;;;20.40;99.90;;;;;;5036727;28;20080;-73
2021/09/23 11:40:40;;;;;;;1.30;0.10;;;20.20;99.90;;;;;;5036896;28;20039;-73
2021/09/23 11:43:09;;;;;;;2.50;0.20;;;20.20;99.90;;;;;;5036544;28;20026;-73
2021/09/23 11:45:40;;;;;;;2.50;0.50;;;20.20;99.90;;;;;;5036816;28;20060;-74
2021/09/23 11:48:14;;;;;;;2.72;0.32;;;20.20;99.90;;;;;;5036473;28;20476;-75
2021/09/23 11:50:46;;;;;;;1.73;0.00;;;20.30;99.90;;;;;;5048321;22;20423;-75
2021/09/23 11:53:19;;;;;;;0.40;0.10;;;20.60;99.90;;;;;;5049196;22;20046;-74
2021/09/23 11:56:17;;;;;;;3.65;0.03;;;20.90;99.90;;;;;;4996987;28;20022;-75
2021/09/23 11:58:48;;;;;;;3.63;0.22;;;20.50;99.90;;;;;;4997279;28;20022;-73
2021/09/23 12:01:14;;;;;;;4.90;0.43;;;20.50;99.90;;;;;;4996945;28;20046;-73
2021/09/23 12:03:41;;;;;;;1.45;0.00;;;20.20;99.90;;;;;;4996836;28;20069;-73
2021/09/23 12:06:09;;;;;;;1.63;0.10;;;20.10;99.90;;;;;;4995489;28;20034;-75
2021/09/23 12:08:35;;;;;;;3.43;0.33;;;19.90;99.90;;;;;;4997297;28;20623;-74
2021/09/23 12:11:04;;;;;;;0.35;0.00;;;19.70;99.90;;;;;;4997135;28;20026;-75
2021/09/23 12:13:38;;;;;;;5.00;0.57;;;19.60;99.90;;;;;;4997099;28;20029;-73
2021/09/23 12:16:27;;;;;;;3.67;0.40;;;19.60;99.90;;;;;;4995803;28;20506;-73
2021/09/23 12:18:52;;;;;;;2.08;0.35;;;19.70;99.90;;;;;;4996477;28;20113;-75
2021/09/23 12:21:22;;;;;;;2.20;0.10;;;19.60;99.90;;;;;;4995236;28;20065;-75
2021/09/23 12:23:50;;;;;;;2.05;0.03;;;19.30;99.90;;;;;;4996343;28;20041;-75
2021/09/23 12:26:19;;;;;;;4.45;0.00;;;19.30;99.90;;;;;;4996400;28;20034;-74
2021/09/23 12:28:58;;;;;;;1.73;0.10;;;19.30;99.90;;;;;;4995087;28;20061;-74
2021/09/23 12:31:46;;;;;;;1.08;0.00;;;19.20;99.90;;;;;;4996265;28;20037;-73
2021/09/23 12:34:20;;;;;;;1.55;0.30;;;19.30;99.90;;;;;;4996384;28;20076;-74
2021/09/23 12:37:00;;;;;;;5.13;0.85;;;19.20;99.90;;;;;;4996445;28;20026;-74
2021/09/23 12:39:34;;;;;;;4.55;0.08;;;19.30;99.90;;;;;;4996459;28;20049;-73